sensor_id;sensor_type;location;lat;lon;timestamp;temperature;humidity
85036;DHT22;75357;49.780;9.448;2024-02-15T00:00:13;9.60;91.30
85036;DHT22;75357;49.780;9.448;2024-02-15T00:02:46;9.60;91.30
85036;DHT22;75357;49.780;9.448;2024-02-15T00:05:32;9.70;91.20
85036;DHT22;75357;49.780;9.448;2024-02-15T00:08:02;9.70;91.10
85036;DHT22;75357;49.780;9.448;2024-02-15T00:10:31;9.60;91.00
85036;DHT22;75357;49.780;9.448;2024-02-15T00:13:01;9.60;91.10
85036;DHT22;75357;49.780;9.448;2024-02-15T00:15:30;9.70;91.00
85036;DHT22;75357;49.780;9.448;2024-02-15T00:18:02;9.70;90.90
85036;DHT22;75357;49.780;9.448;2024-02-15T00:20:31;9.70;90.90
85036;DHT22;75357;49.780;9.448;2024-02-15T00:23:02;9.60;91.00
85036;DHT22;75357;49.780;9.448;2024-02-15T00:25:31;9.60;91.10
85036;DHT22;75357;49.780;9.448;2024-02-15T00:27:59;9.50;91.10
85036;DHT22;75357;49.780;9.448;2024-02-15T00:30:29;9.50;91.00
85036;DHT22;75357;49.780;9.448;2024-02-15T00:32:58;9.50;91.10
85036;DHT22;75357;49.780;9.448;2024-02-15T00:35:30;9.40;91.00
85036;DHT22;75357;49.780;9.448;2024-02-15T00:37:59;9.40;91.00
85036;DHT22;75357;49.780;9.448;2024-02-15T00:40:28;9.30;90.80
85036;DHT22;75357;49.780;9.448;2024-02-15T00:42:57;9.30;90.90
85036;DHT22;75357;49.780;9.448;2024-02-15T00:45:26;9.20;91.00
85036;DHT22;75357;49.780;9.448;2024-02-15T00:47:55;9.20;91.10
85036;DHT22;75357;49.780;9.448;2024-02-15T00:50:24;9.20;91.10
85036;DHT22;75357;49.780;9.448;2024-02-15T00:52:54;9.20;91.20
85036;DHT22;75357;49.780;9.448;2024-02-15T00:55:23;9.20;91.20
85036;DHT22;75357;49.780;9.448;2024-02-15T00:57:52;9.20;91.10
85036;DHT22;75357;49.780;9.448;2024-02-15T01:00:22;9.20;91.20
85036;DHT22;75357;49.780;9.448;2024-02-15T01:02:50;9.30;91.30
85036;DHT22;75357;49.780;9.448;2024-02-15T01:05:20;9.30;91.30
85036;DHT22;75357;49.780;9.448;2024-02-15T01:07:49;9.30;91.30
85036;DHT22;75357;49.780;9.448;2024-02-15T01:10:20;9.30;91.30
85036;DHT22;75357;49.780;9.448;2024-02-15T01:12:49;9.30;91.30
85036;DHT22;75357;49.780;9.448;2024-02-15T01:15:19;9.30;91.30
85036;DHT22;75357;49.780;9.448;2024-02-15T01:17:49;9.30;91.30
85036;DHT22;75357;49.780;9.448;2024-02-15T01:20:17;9.30;91.30
85036;DHT22;75357;49.780;9.448;2024-02-15T01:22:48;9.30;91.30
85036;DHT22;75357;49.780;9.448;2024-02-15T01:25:19;9.30;91.40
85036;DHT22;75357;49.780;9.448;2024-02-15T01:27:48;9.30;91.30
85036;DHT22;75357;49.780;9.448;2024-02-15T01:30:21;9.30;91.30
85036;DHT22;75357;49.780;9.448;2024-02-15T01:32:49;9.20;91.40
85036;DHT22;75357;49.780;9.448;2024-02-15T01:35:18;9.20;91.40
85036;DHT22;75357;49.780;9.448;2024-02-15T01:37:47;9.20;91.30
85036;DHT22;75357;49.780;9.448;2024-02-15T01:40:16;9.10;91.30
85036;DHT22;75357;49.780;9.448;2024-02-15T01:42:47;9.10;91.30
85036;DHT22;75357;49.780;9.448;2024-02-15T01:45:17;9.00;91.40
85036;DHT22;75357;49.780;9.448;2024-02-15T01:47:46;9.10;91.50
85036;DHT22;75357;49.780;9.448;2024-02-15T01:50:16;9.10;91.60
85036;DHT22;75357;49.780;9.448;2024-02-15T01:52:49;9.10;91.60
85036;DHT22;75357;49.780;9.448;2024-02-15T01:55:20;9.10;91.70
85036;DHT22;75357;49.780;9.448;2024-02-15T01:57:51;9.10;91.70
85036;DHT22;75357;49.780;9.448;2024-02-15T02:00:48;9.20;91.60
85036;DHT22;75357;49.780;9.448;2024-02-15T02:03:18;9.10;91.70
85036;DHT22;75357;49.780;9.448;2024-02-15T02:05:49;9.20;91.70
85036;DHT22;75357;49.780;9.448;2024-02-15T02:08:17;9.30;91.50
85036;DHT22;75357;49.780;9.448;2024-02-15T02:10:46;9.30;91.50
85036;DHT22;75357;49.780;9.448;2024-02-15T02:13:16;9.30;91.50
85036;DHT22;75357;49.780;9.448;2024-02-15T02:15:45;9.40;91.50
85036;DHT22;75357;49.780;9.448;2024-02-15T02:18:14;9.40;91.30
85036;DHT22;75357;49.780;9.448;2024-02-15T02:20:43;9.50;91.20
85036;DHT22;75357;49.780;9.448;2024-02-15T02:23:14;9.50;91.20
85036;DHT22;75357;49.780;9.448;2024-02-15T02:25:44;9.40;91.30
85036;DHT22;75357;49.780;9.448;2024-02-15T02:28:15;9.40;91.30
85036;DHT22;75357;49.780;9.448;2024-02-15T02:30:44;9.30;91.30
85036;DHT22;75357;49.780;9.448;2024-02-15T02:33:14;9.30;91.30
85036;DHT22;75357;49.780;9.448;2024-02-15T02:35:47;9.20;91.30
85036;DHT22;75357;49.780;9.448;2024-02-15T02:38:16;9.20;91.40
85036;DHT22;75357;49.780;9.448;2024-02-15T02:40:45;9.20;91.30
85036;DHT22;75357;49.780;9.448;2024-02-15T02:43:14;9.10;91.40
85036;DHT22;75357;49.780;9.448;2024-02-15T02:45:42;9.00;91.50
85036;DHT22;75357;49.780;9.448;2024-02-15T02:48:12;8.90;91.60
85036;DHT22;75357;49.780;9.448;2024-02-15T02:50:41;8.90;91.80
85036;DHT22;75357;49.780;9.448;2024-02-15T02:53:09;8.90;91.80
85036;DHT22;75357;49.780;9.448;2024-02-15T02:55:38;8.90;91.80
85036;DHT22;75357;49.780;9.448;2024-02-15T02:58:09;8.90;91.60
85036;DHT22;75357;49.780;9.448;2024-02-15T03:00:37;9.00;91.60
85036;DHT22;75357;49.780;9.448;2024-02-15T03:03:06;9.00;91.50
85036;DHT22;75357;49.780;9.448;2024-02-15T03:05:35;9.00;91.40
85036;DHT22;75357;49.780;9.448;2024-02-15T03:08:04;9.10;91.40
85036;DHT22;75357;49.780;9.448;2024-02-15T03:10:32;9.10;91.40
85036;DHT22;75357;49.780;9.448;2024-02-15T03:13:04;9.10;91.40
85036;DHT22;75357;49.780;9.448;2024-02-15T03:15:37;9.10;91.40
85036;DHT22;75357;49.780;9.448;2024-02-15T03:18:06;9.10;91.40
85036;DHT22;75357;49.780;9.448;2024-02-15T03:20:36;9.10;91.40
85036;DHT22;75357;49.780;9.448;2024-02-15T03:23:08;9.10;91.40
85036;DHT22;75357;49.780;9.448;2024-02-15T03:25:36;9.00;91.40
85036;DHT22;75357;49.780;9.448;2024-02-15T03:28:05;9.00;91.70
85036;DHT22;75357;49.780;9.448;2024-02-15T03:30:34;9.10;91.70
85036;DHT22;75357;49.780;9.448;2024-02-15T03:33:04;9.10;91.70
85036;DHT22;75357;49.780;9.448;2024-02-15T03:35:34;9.10;91.60
85036;DHT22;75357;49.780;9.448;2024-02-15T03:38:03;9.10;91.50
85036;DHT22;75357;49.780;9.448;2024-02-15T03:40:31;9.10;91.50
85036;DHT22;75357;49.780;9.448;2024-02-15T03:43:00;9.10;91.60
85036;DHT22;75357;49.780;9.448;2024-02-15T03:45:33;9.10;91.60
85036;DHT22;75357;49.780;9.448;2024-02-15T03:48:04;9.10;91.70
85036;DHT22;75357;49.780;9.448;2024-02-15T03:50:34;9.10;91.80
85036;DHT22;75357;49.780;9.448;2024-02-15T03:53:02;9.00;91.80
85036;DHT22;75357;49.780;9.448;2024-02-15T03:55:35;9.00;91.90
85036;DHT22;75357;49.780;9.448;2024-02-15T03:58:04;9.10;92.00
85036;DHT22;75357;49.780;9.448;2024-02-15T04:00:34;9.10;92.00
85036;DHT22;75357;49.780;9.448;2024-02-15T04:03:05;9.10;92.00
85036;DHT22;75357;49.780;9.448;2024-02-15T04:05:34;9.10;91.90
85036;DHT22;75357;49.780;9.448;2024-02-15T04:08:03;9.10;91.90
85036;DHT22;75357;49.780;9.448;2024-02-15T04:10:32;9.20;91.90
85036;DHT22;75357;49.780;9.448;2024-02-15T04:13:00;9.10;91.90
85036;DHT22;75357;49.780;9.448;2024-02-15T04:15:29;9.10;92.00
85036;DHT22;75357;49.780;9.448;2024-02-15T04:17:58;9.10;92.10
85036;DHT22;75357;49.780;9.448;2024-02-15T04:20:29;9.00;92.10
85036;DHT22;75357;49.780;9.448;2024-02-15T04:22:58;9.00;92.20
85036;DHT22;75357;49.780;9.448;2024-02-15T04:25:28;9.00;92.20
85036;DHT22;75357;49.780;9.448;2024-02-15T04:27:58;9.00;92.00
85036;DHT22;75357;49.780;9.448;2024-02-15T04:30:30;9.00;92.00
85036;DHT22;75357;49.780;9.448;2024-02-15T04:32:58;9.00;92.00
85036;DHT22;75357;49.780;9.448;2024-02-15T04:35:29;9.10;92.00
85036;DHT22;75357;49.780;9.448;2024-02-15T04:37:58;9.10;91.80
85036;DHT22;75357;49.780;9.448;2024-02-15T04:40:26;9.10;91.80
85036;DHT22;75357;49.780;9.448;2024-02-15T04:42:54;9.10;91.90
85036;DHT22;75357;49.780;9.448;2024-02-15T04:45:23;9.10;91.80
85036;DHT22;75357;49.780;9.448;2024-02-15T04:47:51;9.10;91.90
85036;DHT22;75357;49.780;9.448;2024-02-15T04:50:20;9.10;92.00
85036;DHT22;75357;49.780;9.448;2024-02-15T04:52:50;9.10;92.10
85036;DHT22;75357;49.780;9.448;2024-02-15T04:55:19;9.10;92.00
85036;DHT22;75357;49.780;9.448;2024-02-15T04:57:50;9.10;92.00
85036;DHT22;75357;49.780;9.448;2024-02-15T05:00:23;9.10;91.80
85036;DHT22;75357;49.780;9.448;2024-02-15T05:02:53;9.00;91.70
85036;DHT22;75357;49.780;9.448;2024-02-15T05:05:21;9.00;91.80
85036;DHT22;75357;49.780;9.448;2024-02-15T05:07:56;9.00;91.80
85036;DHT22;75357;49.780;9.448;2024-02-15T05:10:25;8.90;91.80
85036;DHT22;75357;49.780;9.448;2024-02-15T05:12:53;8.90;91.90
85036;DHT22;75357;49.780;9.448;2024-02-15T05:15:22;8.90;91.80
85036;DHT22;75357;49.780;9.448;2024-02-15T05:17:52;9.00;91.80
85036;DHT22;75357;49.780;9.448;2024-02-15T05:20:21;9.00;91.80
85036;DHT22;75357;49.780;9.448;2024-02-15T05:22:52;9.10;91.60
85036;DHT22;75357;49.780;9.448;2024-02-15T05:25:22;9.10;91.50
85036;DHT22;75357;49.780;9.448;2024-02-15T05:27:53;9.00;91.60
85036;DHT22;75357;49.780;9.448;2024-02-15T05:30:24;9.00;91.60
85036;DHT22;75357;49.780;9.448;2024-02-15T05:32:53;9.00;91.60
85036;DHT22;75357;49.780;9.448;2024-02-15T05:35:23;9.00;91.60
85036;DHT22;75357;49.780;9.448;2024-02-15T05:37:54;9.00;91.50
85036;DHT22;75357;49.780;9.448;2024-02-15T05:40:24;9.10;91.60
85036;DHT22;75357;49.780;9.448;2024-02-15T05:42:56;9.10;91.60
85036;DHT22;75357;49.780;9.448;2024-02-15T05:45:30;9.10;91.40
85036;DHT22;75357;49.780;9.448;2024-02-15T05:48:04;9.10;91.40
85036;DHT22;75357;49.780;9.448;2024-02-15T05:50:34;9.20;91.30
85036;DHT22;75357;49.780;9.448;2024-02-15T05:53:04;9.20;91.20
85036;DHT22;75357;49.780;9.448;2024-02-15T05:55:36;9.10;91.20
85036;DHT22;75357;49.780;9.448;2024-02-15T05:58:11;9.20;91.20
85036;DHT22;75357;49.780;9.448;2024-02-15T06:00:41;9.10;91.10
85036;DHT22;75357;49.780;9.448;2024-02-15T06:03:11;9.10;91.10
85036;DHT22;75357;49.780;9.448;2024-02-15T06:05:40;9.00;91.20
85036;DHT22;75357;49.780;9.448;2024-02-15T06:08:09;9.00;91.30
85036;DHT22;75357;49.780;9.448;2024-02-15T06:10:41;9.00;91.40
85036;DHT22;75357;49.780;9.448;2024-02-15T06:13:09;9.00;91.20
85036;DHT22;75357;49.780;9.448;2024-02-15T06:15:38;9.00;91.20
85036;DHT22;75357;49.780;9.448;2024-02-15T06:18:06;8.90;91.30
85036;DHT22;75357;49.780;9.448;2024-02-15T06:20:37;9.00;91.30
85036;DHT22;75357;49.780;9.448;2024-02-15T06:23:07;9.00;91.30
85036;DHT22;75357;49.780;9.448;2024-02-15T06:25:35;9.00;91.40
85036;DHT22;75357;49.780;9.448;2024-02-15T06:28:05;8.90;91.30
85036;DHT22;75357;49.780;9.448;2024-02-15T06:30:46;9.00;91.40
85036;DHT22;75357;49.780;9.448;2024-02-15T06:33:32;8.90;91.30
85036;DHT22;75357;49.780;9.448;2024-02-15T06:36:17;9.00;91.30
85036;DHT22;75357;49.780;9.448;2024-02-15T06:39:03;9.00;91.30
85036;DHT22;75357;49.780;9.448;2024-02-15T06:41:49;9.00;91.30
85036;DHT22;75357;49.780;9.448;2024-02-15T06:44:20;9.00;91.20
85036;DHT22;75357;49.780;9.448;2024-02-15T06:46:51;9.10;91.20
85036;DHT22;75357;49.780;9.448;2024-02-15T06:49:21;9.20;91.00
85036;DHT22;75357;49.780;9.448;2024-02-15T06:51:49;9.20;91.00
85036;DHT22;75357;49.780;9.448;2024-02-15T06:54:18;9.20;91.00
85036;DHT22;75357;49.780;9.448;2024-02-15T06:56:47;9.20;91.00
85036;DHT22;75357;49.780;9.448;2024-02-15T06:59:15;9.20;91.10
85036;DHT22;75357;49.780;9.448;2024-02-15T07:01:46;9.20;91.10
85036;DHT22;75357;49.780;9.448;2024-02-15T07:04:15;9.20;91.10
85036;DHT22;75357;49.780;9.448;2024-02-15T07:06:43;9.30;91.10
85036;DHT22;75357;49.780;9.448;2024-02-15T07:09:15;9.30;91.00
85036;DHT22;75357;49.780;9.448;2024-02-15T07:11:46;9.30;90.90
85036;DHT22;75357;49.780;9.448;2024-02-15T07:14:17;9.30;90.90
85036;DHT22;75357;49.780;9.448;2024-02-15T07:16:48;9.30;90.80
85036;DHT22;75357;49.780;9.448;2024-02-15T07:19:18;9.30;90.70
85036;DHT22;75357;49.780;9.448;2024-02-15T07:21:46;9.40;90.70
85036;DHT22;75357;49.780;9.448;2024-02-15T07:24:15;9.50;90.70
85036;DHT22;75357;49.780;9.448;2024-02-15T07:26:43;9.60;90.70
85036;DHT22;75357;49.780;9.448;2024-02-15T07:29:12;9.70;90.60
85036;DHT22;75357;49.780;9.448;2024-02-15T07:31:42;9.70;90.70
85036;DHT22;75357;49.780;9.448;2024-02-15T07:34:12;9.80;90.60
85036;DHT22;75357;49.780;9.448;2024-02-15T07:36:42;10.00;90.10
85036;DHT22;75357;49.780;9.448;2024-02-15T07:39:12;10.10;90.00
85036;DHT22;75357;49.780;9.448;2024-02-15T07:41:51;10.20;89.70
85036;DHT22;75357;49.780;9.448;2024-02-15T07:44:19;10.30;89.50
85036;DHT22;75357;49.780;9.448;2024-02-15T07:46:49;10.40;89.60
85036;DHT22;75357;49.780;9.448;2024-02-15T07:49:18;10.50;89.60
85036;DHT22;75357;49.780;9.448;2024-02-15T07:51:47;10.60;89.10
85036;DHT22;75357;49.780;9.448;2024-02-15T07:54:20;10.60;89.00
85036;DHT22;75357;49.780;9.448;2024-02-15T07:56:49;10.70;88.80
85036;DHT22;75357;49.780;9.448;2024-02-15T07:59:17;10.80;88.60
85036;DHT22;75357;49.780;9.448;2024-02-15T08:01:45;10.80;88.10
85036;DHT22;75357;49.780;9.448;2024-02-15T08:04:18;10.80;88.30
85036;DHT22;75357;49.780;9.448;2024-02-15T08:06:48;10.70;88.60
85036;DHT22;75357;49.780;9.448;2024-02-15T08:09:17;10.90;88.70
85036;DHT22;75357;49.780;9.448;2024-02-15T08:11:49;10.90;88.40
85036;DHT22;75357;49.780;9.448;2024-02-15T08:14:17;11.00;88.30
85036;DHT22;75357;49.780;9.448;2024-02-15T08:16:48;11.00;88.50
85036;DHT22;75357;49.780;9.448;2024-02-15T08:19:18;11.10;88.30
85036;DHT22;75357;49.780;9.448;2024-02-15T08:21:46;11.10;88.00
85036;DHT22;75357;49.780;9.448;2024-02-15T08:24:18;11.20;87.90
85036;DHT22;75357;49.780;9.448;2024-02-15T08:26:46;11.30;88.00
85036;DHT22;75357;49.780;9.448;2024-02-15T08:29:14;11.30;87.10
85036;DHT22;75357;49.780;9.448;2024-02-15T08:31:43;11.30;87.10
85036;DHT22;75357;49.780;9.448;2024-02-15T08:34:11;11.30;87.90
85036;DHT22;75357;49.780;9.448;2024-02-15T08:36:43;11.40;87.90
85036;DHT22;75357;49.780;9.448;2024-02-15T08:39:11;11.50;87.00
85036;DHT22;75357;49.780;9.448;2024-02-15T08:41:40;11.50;86.70
85036;DHT22;75357;49.780;9.448;2024-02-15T08:44:08;11.60;86.80
85036;DHT22;75357;49.780;9.448;2024-02-15T08:46:42;11.70;87.20
85036;DHT22;75357;49.780;9.448;2024-02-15T08:49:10;11.80;86.30
85036;DHT22;75357;49.780;9.448;2024-02-15T08:51:40;12.00;86.00
85036;DHT22;75357;49.780;9.448;2024-02-15T08:54:10;12.00;85.20
85036;DHT22;75357;49.780;9.448;2024-02-15T08:56:39;11.90;84.90
85036;DHT22;75357;49.780;9.448;2024-02-15T08:59:07;12.00;85.60
85036;DHT22;75357;49.780;9.448;2024-02-15T09:01:35;12.10;86.20
85036;DHT22;75357;49.780;9.448;2024-02-15T09:04:07;12.00;85.80
85036;DHT22;75357;49.780;9.448;2024-02-15T09:06:35;12.10;85.90
85036;DHT22;75357;49.780;9.448;2024-02-15T09:09:04;12.20;85.90
85036;DHT22;75357;49.780;9.448;2024-02-15T09:11:33;12.30;86.20
85036;DHT22;75357;49.780;9.448;2024-02-15T09:14:02;12.40;84.90
85036;DHT22;75357;49.780;9.448;2024-02-15T09:16:31;12.40;85.50
85036;DHT22;75357;49.780;9.448;2024-02-15T09:19:00;12.30;85.40
85036;DHT22;75357;49.780;9.448;2024-02-15T09:21:29;12.30;85.20
85036;DHT22;75357;49.780;9.448;2024-02-15T09:23:57;12.30;84.90
85036;DHT22;75357;49.780;9.448;2024-02-15T09:26:25;12.50;85.10
85036;DHT22;75357;49.780;9.448;2024-02-15T09:28:56;12.60;85.10
85036;DHT22;75357;49.780;9.448;2024-02-15T09:31:24;12.80;84.70
85036;DHT22;75357;49.780;9.448;2024-02-15T09:33:53;13.00;83.90
85036;DHT22;75357;49.780;9.448;2024-02-15T09:36:22;13.00;84.30
85036;DHT22;75357;49.780;9.448;2024-02-15T09:38:50;13.00;83.50
85036;DHT22;75357;49.780;9.448;2024-02-15T09:41:19;13.10;83.80
85036;DHT22;75357;49.780;9.448;2024-02-15T09:43:47;13.20;84.10
85036;DHT22;75357;49.780;9.448;2024-02-15T09:46:19;13.30;83.70
85036;DHT22;75357;49.780;9.448;2024-02-15T09:48:50;13.40;84.10
85036;DHT22;75357;49.780;9.448;2024-02-15T09:51:18;13.50;84.60
85036;DHT22;75357;49.780;9.448;2024-02-15T09:53:48;13.60;83.60
85036;DHT22;75357;49.780;9.448;2024-02-15T09:56:17;13.50;83.00
85036;DHT22;75357;49.780;9.448;2024-02-15T09:58:46;13.40;83.70
85036;DHT22;75357;49.780;9.448;2024-02-15T10:01:15;13.60;84.30
85036;DHT22;75357;49.780;9.448;2024-02-15T10:03:50;13.90;84.00
85036;DHT22;75357;49.780;9.448;2024-02-15T10:06:20;14.30;82.00
85036;DHT22;75357;49.780;9.448;2024-02-15T10:08:50;14.50;82.00
85036;DHT22;75357;49.780;9.448;2024-02-15T10:11:19;14.70;81.60
85036;DHT22;75357;49.780;9.448;2024-02-15T10:13:47;14.80;80.30
85036;DHT22;75357;49.780;9.448;2024-02-15T10:16:17;14.40;81.70
85036;DHT22;75357;49.780;9.448;2024-02-15T10:18:46;14.30;82.60
85036;DHT22;75357;49.780;9.448;2024-02-15T10:21:27;14.20;80.70
85036;DHT22;75357;49.780;9.448;2024-02-15T10:24:05;14.20;82.10
85036;DHT22;75357;49.780;9.448;2024-02-15T10:26:35;14.20;80.40
85036;DHT22;75357;49.780;9.448;2024-02-15T10:29:08;14.40;81.30
85036;DHT22;75357;49.780;9.448;2024-02-15T10:31:38;14.40;80.80
85036;DHT22;75357;49.780;9.448;2024-02-15T10:34:08;14.60;80.30
85036;DHT22;75357;49.780;9.448;2024-02-15T10:36:38;14.60;80.80
85036;DHT22;75357;49.780;9.448;2024-02-15T10:39:14;14.90;79.80
85036;DHT22;75357;49.780;9.448;2024-02-15T10:41:47;15.20;79.00
85036;DHT22;75357;49.780;9.448;2024-02-15T10:44:17;15.30;78.80
85036;DHT22;75357;49.780;9.448;2024-02-15T10:46:47;15.20;79.20
85036;DHT22;75357;49.780;9.448;2024-02-15T10:49:22;15.00;79.50
85036;DHT22;75357;49.780;9.448;2024-02-15T10:51:56;14.90;80.20
85036;DHT22;75357;49.780;9.448;2024-02-15T10:54:46;14.80;79.80
85036;DHT22;75357;49.780;9.448;2024-02-15T10:57:18;15.00;80.40
85036;DHT22;75357;49.780;9.448;2024-02-15T10:59:55;15.10;79.40
85036;DHT22;75357;49.780;9.448;2024-02-15T11:02:28;15.00;80.20
85036;DHT22;75357;49.780;9.448;2024-02-15T11:05:03;14.80;81.00
85036;DHT22;75357;49.780;9.448;2024-02-15T11:07:36;14.80;80.90
85036;DHT22;75357;49.780;9.448;2024-02-15T11:10:07;14.80;80.90
85036;DHT22;75357;49.780;9.448;2024-02-15T11:12:38;15.00;80.50
85036;DHT22;75357;49.780;9.448;2024-02-15T11:15:40;15.20;80.60
85036;DHT22;75357;49.780;9.448;2024-02-15T11:18:09;15.20;79.80
85036;DHT22;75357;49.780;9.448;2024-02-15T11:20:47;15.00;79.30
85036;DHT22;75357;49.780;9.448;2024-02-15T11:23:28;15.10;80.40
85036;DHT22;75357;49.780;9.448;2024-02-15T11:26:04;15.40;80.50
85036;DHT22;75357;49.780;9.448;2024-02-15T11:28:39;15.50;78.80
85036;DHT22;75357;49.780;9.448;2024-02-15T11:31:10;15.50;77.80
85036;DHT22;75357;49.780;9.448;2024-02-15T11:37:05;15.60;77.90
85036;DHT22;75357;49.780;9.448;2024-02-15T11:39:41;15.90;77.30
85036;DHT22;75357;49.780;9.448;2024-02-15T11:42:28;16.20;76.60
85036;DHT22;75357;49.780;9.448;2024-02-15T11:45:03;16.30;76.10
85036;DHT22;75357;49.780;9.448;2024-02-15T11:47:34;16.50;75.80
85036;DHT22;75357;49.780;9.448;2024-02-15T11:50:09;16.60;74.90
85036;DHT22;75357;49.780;9.448;2024-02-15T11:52:39;16.70;74.50
85036;DHT22;75357;49.780;9.448;2024-02-15T11:55:10;17.00;74.40
85036;DHT22;75357;49.780;9.448;2024-02-15T11:57:40;17.30;74.20
85036;DHT22;75357;49.780;9.448;2024-02-15T12:00:22;17.50;70.40
85036;DHT22;75357;49.780;9.448;2024-02-15T12:03:09;17.40;71.20
85036;DHT22;75357;49.780;9.448;2024-02-15T12:05:55;17.30;70.70
85036;DHT22;75357;49.780;9.448;2024-02-15T12:08:44;17.60;67.60
85036;DHT22;75357;49.780;9.448;2024-02-15T12:11:31;17.80;63.20
85036;DHT22;75357;49.780;9.448;2024-02-15T12:14:18;18.10;61.80
85036;DHT22;75357;49.780;9.448;2024-02-15T12:17:05;17.60;60.20
85036;DHT22;75357;49.780;9.448;2024-02-15T12:19:51;17.10;62.60
85036;DHT22;75357;49.780;9.448;2024-02-15T12:22:22;17.10;62.90
85036;DHT22;75357;49.780;9.448;2024-02-15T12:24:53;17.20;62.50
85036;DHT22;75357;49.780;9.448;2024-02-15T12:27:25;17.40;62.00
85036;DHT22;75357;49.780;9.448;2024-02-15T12:29:55;17.60;60.20
85036;DHT22;75357;49.780;9.448;2024-02-15T12:32:26;17.60;58.90
85036;DHT22;75357;49.780;9.448;2024-02-15T12:35:10;17.50;60.60
85036;DHT22;75357;49.780;9.448;2024-02-15T12:37:42;17.70;60.00
85036;DHT22;75357;49.780;9.448;2024-02-15T12:40:11;17.60;59.80
85036;DHT22;75357;49.780;9.448;2024-02-15T12:42:48;17.60;60.60
85036;DHT22;75357;49.780;9.448;2024-02-15T12:45:20;17.70;60.40
85036;DHT22;75357;49.780;9.448;2024-02-15T12:47:51;17.80;60.20
85036;DHT22;75357;49.780;9.448;2024-02-15T12:50:21;17.90;58.70
85036;DHT22;75357;49.780;9.448;2024-02-15T12:52:50;17.90;59.40
85036;DHT22;75357;49.780;9.448;2024-02-15T12:55:22;17.70;59.10
85036;DHT22;75357;49.780;9.448;2024-02-15T12:57:54;17.90;60.40
85036;DHT22;75357;49.780;9.448;2024-02-15T13:00:25;18.10;59.50
85036;DHT22;75357;49.780;9.448;2024-02-15T13:02:56;18.10;58.90
85036;DHT22;75357;49.780;9.448;2024-02-15T13:05:26;18.10;58.60
85036;DHT22;75357;49.780;9.448;2024-02-15T13:07:55;18.20;58.80
85036;DHT22;75357;49.780;9.448;2024-02-15T13:10:24;18.20;58.40
85036;DHT22;75357;49.780;9.448;2024-02-15T13:12:55;18.10;56.30
85036;DHT22;75357;49.780;9.448;2024-02-15T13:15:25;18.00;58.20
85036;DHT22;75357;49.780;9.448;2024-02-15T13:18:03;17.80;58.80
85036;DHT22;75357;49.780;9.448;2024-02-15T13:20:33;17.50;59.20
85036;DHT22;75357;49.780;9.448;2024-02-15T13:23:05;17.60;58.60
85036;DHT22;75357;49.780;9.448;2024-02-15T13:25:37;17.80;59.80
85036;DHT22;75357;49.780;9.448;2024-02-15T13:28:09;17.80;58.60
85036;DHT22;75357;49.780;9.448;2024-02-15T13:30:42;17.80;59.00
85036;DHT22;75357;49.780;9.448;2024-02-15T13:33:12;17.90;58.40
85036;DHT22;75357;49.780;9.448;2024-02-15T13:35:41;17.90;58.20
85036;DHT22;75357;49.780;9.448;2024-02-15T13:38:11;17.60;58.50
85036;DHT22;75357;49.780;9.448;2024-02-15T13:40:42;17.70;58.50
85036;DHT22;75357;49.780;9.448;2024-02-15T13:43:14;17.80;58.30
85036;DHT22;75357;49.780;9.448;2024-02-15T13:45:44;17.80;58.30
85036;DHT22;75357;49.780;9.448;2024-02-15T13:48:16;18.00;58.40
85036;DHT22;75357;49.780;9.448;2024-02-15T13:50:51;17.70;58.70
85036;DHT22;75357;49.780;9.448;2024-02-15T13:53:20;17.60;59.50
85036;DHT22;75357;49.780;9.448;2024-02-15T13:55:52;17.60;59.10
85036;DHT22;75357;49.780;9.448;2024-02-15T13:58:22;17.70;59.20
85036;DHT22;75357;49.780;9.448;2024-02-15T14:00:50;17.80;59.10
85036;DHT22;75357;49.780;9.448;2024-02-15T14:03:19;18.00;58.30
85036;DHT22;75357;49.780;9.448;2024-02-15T14:05:49;18.00;58.00
85036;DHT22;75357;49.780;9.448;2024-02-15T14:08:18;18.10;58.00
85036;DHT22;75357;49.780;9.448;2024-02-15T14:10:47;18.10;57.50
85036;DHT22;75357;49.780;9.448;2024-02-15T14:13:16;18.20;57.70
85036;DHT22;75357;49.780;9.448;2024-02-15T14:15:47;18.00;58.40
85036;DHT22;75357;49.780;9.448;2024-02-15T14:18:15;18.00;57.90
85036;DHT22;75357;49.780;9.448;2024-02-15T14:20:46;17.90;58.00
85036;DHT22;75357;49.780;9.448;2024-02-15T14:23:16;18.00;58.90
85036;DHT22;75357;49.780;9.448;2024-02-15T14:25:45;18.00;58.00
85036;DHT22;75357;49.780;9.448;2024-02-15T14:28:14;18.00;58.70
85036;DHT22;75357;49.780;9.448;2024-02-15T14:30:43;17.90;58.40
85036;DHT22;75357;49.780;9.448;2024-02-15T14:33:30;17.90;58.80
85036;DHT22;75357;49.780;9.448;2024-02-15T14:36:01;17.80;59.20
85036;DHT22;75357;49.780;9.448;2024-02-15T14:38:31;17.80;59.70
85036;DHT22;75357;49.780;9.448;2024-02-15T14:41:02;17.90;59.60
85036;DHT22;75357;49.780;9.448;2024-02-15T14:43:35;17.90;59.70
85036;DHT22;75357;49.780;9.448;2024-02-15T14:46:03;17.90;59.60
85036;DHT22;75357;49.780;9.448;2024-02-15T14:48:34;17.70;60.00
85036;DHT22;75357;49.780;9.448;2024-02-15T14:51:03;17.70;58.90
85036;DHT22;75357;49.780;9.448;2024-02-15T14:53:32;17.70;59.50
85036;DHT22;75357;49.780;9.448;2024-02-15T14:56:00;17.70;60.10
85036;DHT22;75357;49.780;9.448;2024-02-15T14:58:31;17.60;60.50
85036;DHT22;75357;49.780;9.448;2024-02-15T15:00:59;17.50;59.60
85036;DHT22;75357;49.780;9.448;2024-02-15T15:03:37;17.30;59.80
85036;DHT22;75357;49.780;9.448;2024-02-15T15:06:07;17.10;60.50
85036;DHT22;75357;49.780;9.448;2024-02-15T15:09:04;17.00;60.70
85036;DHT22;75357;49.780;9.448;2024-02-15T15:11:50;16.80;61.30
85036;DHT22;75357;49.780;9.448;2024-02-15T15:14:36;16.80;61.80
85036;DHT22;75357;49.780;9.448;2024-02-15T15:17:05;16.90;61.90
85036;DHT22;75357;49.780;9.448;2024-02-15T15:19:34;16.90;61.80
85036;DHT22;75357;49.780;9.448;2024-02-15T15:22:04;16.80;62.30
85036;DHT22;75357;49.780;9.448;2024-02-15T15:24:36;16.80;62.10
85036;DHT22;75357;49.780;9.448;2024-02-15T15:27:04;16.70;62.80
85036;DHT22;75357;49.780;9.448;2024-02-15T15:29:33;16.70;64.20
85036;DHT22;75357;49.780;9.448;2024-02-15T15:32:03;16.60;64.30
85036;DHT22;75357;49.780;9.448;2024-02-15T15:34:31;16.60;64.50
85036;DHT22;75357;49.780;9.448;2024-02-15T15:37:01;16.50;64.70
85036;DHT22;75357;49.780;9.448;2024-02-15T15:39:30;16.50;64.70
85036;DHT22;75357;49.780;9.448;2024-02-15T15:42:01;16.40;65.20
85036;DHT22;75357;49.780;9.448;2024-02-15T15:44:30;16.30;65.90
85036;DHT22;75357;49.780;9.448;2024-02-15T15:46:59;16.30;66.20
85036;DHT22;75357;49.780;9.448;2024-02-15T15:49:28;16.20;67.00
85036;DHT22;75357;49.780;9.448;2024-02-15T15:52:01;16.00;67.70
85036;DHT22;75357;49.780;9.448;2024-02-15T15:54:31;15.90;68.70
85036;DHT22;75357;49.780;9.448;2024-02-15T15:57:00;15.70;69.70
85036;DHT22;75357;49.780;9.448;2024-02-15T15:59:30;15.60;70.70
85036;DHT22;75357;49.780;9.448;2024-02-15T16:02:00;15.50;71.30
85036;DHT22;75357;49.780;9.448;2024-02-15T16:04:28;15.40;71.40